Time;durP1;ratioP1;P1;durP2;ratioP2;P2;SDS_P1;SDS_P2;PMS_P1;PMS_P2;Temp;Humidity;BMP_temperature;BMP_pressure;BME280_temperature;BME280_humidity;BME280_pressure;Samples;Min_cycle;Max_cycle;Signal;HPM_P1;HPM_P2
2021/09/29 00:00:12;;;;;;;11.32;4.43;;;;;;;14.67;73.06;101593.44;5114705;28;20467;-51
2021/09/29 00:02:40;;;;;;;11.95;4.72;;;;;;;14.61;73.01;101586.34;5118401;28;20036;-50
2021/09/29 00:05:08;;;;;;;12.02;4.65;;;;;;;14.59;73.32;101581.13;5116215;27;20043;-53
2021/09/29 00:07:36;;;;;;;11.15;4.45;;;;;;;14.62;72.96;101580.59;5118167;28;20156;-51
2021/09/29 00:10:05;;;;;;;10.82;4.80;;;;;;;14.56;72.90;101573.47;5117772;27;20065;-51
2021/09/29 00:12:32;;;;;;;11.18;4.72;;;;;;;14.52;72.93;101577.00;5116556;28;20031;-51
2021/09/29 00:15:00;;;;;;;12.07;4.50;;;;;;;14.49;73.23;101573.69;5116479;28;20591;-52
2021/09/29 00:17:27;;;;;;;13.38;5.10;;;;;;;14.51;73.23;101569.88;5117807;27;20048;-53
2021/09/29 00:19:55;;;;;;;11.48;4.82;;;;;;;14.53;73.06;101570.41;5118070;27;20047;-51
2021/09/29 00:22:22;;;;;;;10.15;4.80;;;;;;;14.53;73.26;101563.03;5116250;28;20446;-53
2021/09/29 00:24:50;;;;;;;10.25;4.63;;;;;;;14.49;73.32;101560.00;5114529;27;20127;-51
2021/09/29 00:27:18;;;;;;;11.02;5.10;;;;;;;14.46;73.29;101557.81;5112894;28;20043;-53
2021/09/29 00:29:48;;;;;;;9.32;4.53;;;;;;;14.47;73.42;101553.97;5115070;28;20043;-51
2021/09/29 00:32:18;;;;;;;10.77;4.95;;;;;;;14.52;73.62;101544.09;5107817;28;20043;-50
2021/09/29 00:34:46;;;;;;;10.77;4.70;;;;;;;14.55;73.35;101538.06;5112785;27;20048;-54
2021/09/29 00:37:13;;;;;;;11.75;4.53;;;;;;;14.57;72.91;101536.69;5114812;28;20039;-53
2021/09/29 00:39:41;;;;;;;13.50;5.20;;;;;;;14.60;73.10;101533.41;5114426;28;20035;-51
2021/09/29 00:42:09;;;;;;;12.88;4.60;;;;;;;14.60;72.89;101532.56;5112686;28;20055;-50
2021/09/29 00:44:36;;;;;;;11.45;5.07;;;;;;;14.61;72.82;101526.00;5114337;28;20595;-52
2021/09/29 00:47:04;;;;;;;9.60;4.50;;;;;;;14.59;72.32;101523.53;5112913;28;20429;-51
2021/09/29 00:50:08;;;;;;;10.25;4.57;;;;;;;14.57;72.22;101520.25;5049949;28;20041;-51
2021/09/29 00:52:39;;;;;;;12.23;4.30;;;;;;;14.52;72.89;101527.63;5051671;28;20079;-53
2021/09/29 00:55:09;;;;;;;8.35;4.40;;;;;;;14.48;72.76;101522.72;5050796;28;20055;-54
2021/09/29 00:57:36;;;;;;;10.50;4.57;;;;;;;14.48;72.64;101510.94;5049684;28;20056;-55
2021/09/29 01:00:05;;;;;;;8.90;4.35;;;;;;;14.45;72.40;101505.97;5051308;28;20044;-53
2021/09/29 01:02:33;;;;;;;12.13;5.20;;;;;;;14.41;72.71;101497.50;5042552;28;20563;-52
2021/09/29 01:05:02;;;;;;;13.60;4.55;;;;;;;14.41;72.66;101496.69;5034705;28;20175;-54
2021/09/29 01:07:36;;;;;;;11.55;4.72;;;;;;;14.39;72.51;101496.13;5064172;28;20039;-51
2021/09/29 01:10:05;;;;;;;9.75;4.57;;;;;;;14.36;72.88;101492.03;5095746;28;20482;-53
2021/09/29 01:12:55;;;;;;;8.63;3.95;;;;;;;14.40;72.92;101482.13;5113007;28;20447;-53
2021/09/29 01:15:27;;;;;;;9.90;4.57;;;;;;;14.37;72.70;101477.22;5113110;28;20047;-54
2021/09/29 01:18:03;;;;;;;11.00;4.20;;;;;;;14.38;73.01;101475.28;5111412;28;20444;-50
2021/09/29 01:20:45;;;;;;;12.77;5.10;;;;;;;14.38;72.49;101476.13;5111011;28;20051;-52
2021/09/29 01:23:44;;;;;;;9.27;4.75;;;;;;;14.34;72.50;101477.78;5101192;28;20035;-51
2021/09/29 01:26:17;;;;;;;7.43;4.30;;;;;;;14.31;73.02;101469.25;5050516;28;20053;-53
2021/09/29 01:28:57;;;;;;;9.45;4.43;;;;;;;14.30;73.31;101471.19;5050430;28;20045;-52
2021/09/29 01:31:24;;;;;;;14.40;5.13;;;;;;;14.33;72.80;101465.16;5050207;28;20045;-54
2021/09/29 01:33:53;;;;;;;9.40;4.18;;;;;;;14.30;72.79;101465.72;5050711;28;20061;-55
2021/09/29 01:36:22;;;;;;;10.02;4.07;;;;;;;14.24;72.93;101461.34;5016621;28;20049;-54
2021/09/29 01:38:55;;;;;;;9.57;4.30;;;;;;;14.17;73.28;101456.16;5033538;28;20041;-51
2021/09/29 01:41:25;;;;;;;9.48;4.60;;;;;;;14.16;73.43;101450.94;5050116;28;20051;-54
2021/09/29 01:43:53;;;;;;;12.30;4.95;;;;;;;14.14;73.52;101444.91;5050487;28;20068;-54
2021/09/29 01:46:22;;;;;;;9.35;4.50;;;;;;;14.17;73.56;101445.19;5050635;28;20048;-53
2021/09/29 01:49:24;;;;;;;10.15;4.53;;;;;;;14.12;73.36;101439.72;5050290;28;20495;-51
2021/09/29 01:51:52;;;;;;;12.10;4.80;;;;;;;14.07;73.60;101437.81;5049778;28;20557;-53
2021/09/29 01:54:23;;;;;;;9.98;4.95;;;;;;;14.06;73.83;101436.16;5029541;28;20417;-50
2021/09/29 01:56:52;;;;;;;12.52;4.50;;;;;;;14.06;73.76;101432.59;5049056;28;20052;-54
2021/09/29 01:59:23;;;;;;;8.90;4.53;;;;;;;14.04;73.95;101423.81;5050369;28;20048;-55
2021/09/29 02:01:53;;;;;;;10.05;5.05;;;;;;;14.06;73.83;101427.94;5044311;28;20047;-50
2021/09/29 02:04:21;;;;;;;11.70;5.00;;;;;;;14.02;73.96;101415.91;5109827;28;20055;-49
2021/09/29 02:06:53;;;;;;;12.98;5.13;;;;;;;13.97;74.24;101402.19;5112774;28;20417;-54
2021/09/29 02:09:25;;;;;;;12.05;4.78;;;;;;;13.95;74.20;101412.63;5112454;28;20409;-55
2021/09/29 02:11:54;;;;;;;12.45;4.70;;;;;;;13.95;74.72;101403.56;5109472;28;20047;-54
2021/09/29 02:14:22;;;;;;;9.88;4.22;;;;;;;13.96;74.68;101400.56;5111965;28;20397;-51
2021/09/29 02:16:53;;;;;;;10.32;5.25;;;;;;;13.97;74.39;101399.44;5113261;28;20047;-51
2021/09/29 02:19:20;;;;;;;12.30;4.93;;;;;;;13.94;74.77;101388.22;5112451;28;20042;-54
2021/09/29 02:21:48;;;;;;;10.27;4.85;;;;;;;13.91;74.97;101392.34;5111381;28;20399;-54
2021/09/29 02:24:16;;;;;;;13.82;4.40;;;;;;;13.94;75.14;101386.31;5110516;28;20046;-53
2021/09/29 02:26:44;;;;;;;10.27;4.82;;;;;;;13.99;74.26;101382.72;5112705;27;20047;-49
2021/09/29 02:29:14;;;;;;;9.90;4.65;;;;;;;13.97;74.53;101385.75;5112417;28;20051;-52
2021/09/29 02:31:41;;;;;;;10.60;5.00;;;;;;;13.93;74.60;101381.13;5110938;28;20058;-49
2021/09/29 02:34:09;;;;;;;12.52;4.75;;;;;;;13.90;74.88;101373.44;5107060;28;20040;-53
2021/09/29 02:36:37;;;;;;;10.13;4.45;;;;;;;13.89;75.11;101372.63;5112071;28;20036;-54
2021/09/29 02:39:05;;;;;;;8.50;4.53;;;;;;;13.88;75.20;101371.00;5112475;28;20055;-53
2021/09/29 02:41:33;;;;;;;11.00;4.43;;;;;;;13.91;75.33;101364.94;5112367;28;20043;-54
2021/09/29 02:44:01;;;;;;;10.68;4.55;;;;;;;13.93;75.15;101370.16;5108539;28;20122;-54
2021/09/29 02:46:29;;;;;;;11.05;4.35;;;;;;;13.95;75.19;101370.69;5111918;28;20036;-55
2021/09/29 02:48:56;;;;;;;10.60;5.10;;;;;;;13.96;75.17;101355.91;5111725;28;20084;-53
2021/09/29 02:51:24;;;;;;;9.10;4.22;;;;;;;13.98;75.19;101359.19;5111824;28;20496;-49
2021/09/29 02:53:51;;;;;;;10.93;4.68;;;;;;;13.95;74.69;101360.56;5110584;28;20044;-51
2021/09/29 02:56:19;;;;;;;9.77;4.30;;;;;;;13.90;75.07;101355.06;5099578;28;20052;-52
2021/09/29 02:58:47;;;;;;;8.40;4.45;;;;;;;13.88;75.16;101357.28;5112426;28;20036;-55
2021/09/29 03:01:15;;;;;;;9.73;4.03;;;;;;;13.90;75.28;101354.25;5112223;28;20027;-53
2021/09/29 03:03:42;;;;;;;11.02;5.30;;;;;;;13.90;75.02;101346.84;5110133;28;20093;-55
2021/09/29 03:06:10;;;;;;;12.18;5.00;;;;;;;13.90;75.42;101352.34;5109463;28;20034;-53
2021/09/29 03:08:38;;;;;;;9.32;4.38;;;;;;;13.93;75.07;101346.31;5110805;28;20451;-54
2021/09/29 03:11:05;;;;;;;9.35;4.20;;;;;;;13.92;75.15;101344.66;5112178;28;20044;-53
2021/09/29 03:13:33;;;;;;;14.82;5.15;;;;;;;13.93;75.18;101343.56;5110300;28;20477;-55
2021/09/29 03:16:00;;;;;;;9.25;4.57;;;;;;;13.96;75.05;101331.25;5110156;28;20075;-55
2021/09/29 03:18:28;;;;;;;9.73;4.38;;;;;;;13.93;75.27;101329.88;5111321;28;20122;-55
2021/09/29 03:20:56;;;;;;;9.85;4.18;;;;;;;13.93;75.25;101324.41;5111694;28;20051;-54
2021/09/29 03:23:23;;;;;;;10.15;4.15;;;;;;;13.92;75.24;101316.44;5106307;28;20433;-55
2021/09/29 03:25:51;;;;;;;11.15;4.78;;;;;;;13.90;75.26;101313.97;5102427;28;20044;-55
2021/09/29 03:28:18;;;;;;;13.57;4.15;;;;;;;13.90;75.50;101316.72;5110488;28;20406;-54
2021/09/29 03:30:46;;;;;;;8.85;4.20;;;;;;;13.95;75.08;101313.16;5111838;28;20410;-55
2021/09/29 03:33:14;;;;;;;8.00;3.53;;;;;;;14.02;75.32;101314.53;5111688;28;20130;-52
2021/09/29 03:35:42;;;;;;;11.05;4.18;;;;;;;14.02;74.72;101300.81;5109529;28;20048;-54
2021/09/29 03:38:10;;;;;;;9.85;4.25;;;;;;;14.04;74.67;101292.31;5108633;28;20066;-55
2021/09/29 03:40:38;;;;;;;10.40;3.95;;;;;;;13.98;75.02;101296.19;5111916;28;20036;-52
2021/09/29 03:43:06;;;;;;;8.93;3.80;;;;;;;13.99;74.86;101301.34;5111656;28;20088;-48
2021/09/29 03:45:33;;;;;;;8.65;3.97;;;;;;;13.97;74.78;101291.78;5109882;28;20032;-54
2021/09/29 03:48:01;;;;;;;5.80;2.90;;;;;;;13.96;75.10;101301.91;5109384;28;20055;-51
2021/09/29 03:50:29;;;;;;;10.25;4.10;;;;;;;13.99;75.26;101284.91;5111383;28;20093;-54
2021/09/29 03:52:57;;;;;;;7.75;3.08;;;;;;;14.02;75.00;101287.13;5111918;28;20047;-54
2021/09/29 03:55:24;;;;;;;12.82;3.78;;;;;;;14.06;74.97;101285.44;5109833;28;20036;-55
2021/09/29 03:57:52;;;;;;;7.88;4.35;;;;;;;14.12;74.87;101288.16;5110694;28;20054;-50
2021/09/29 04:00:19;;;;;;;8.18;3.38;;;;;;;14.16;75.40;101294.72;5114382;28;20032;-56
2021/09/29 04:02:47;;;;;;;9.00;3.88;;;;;;;14.24;74.84;101283.19;5115560;28;20050;-54
2021/09/29 04:05:15;;;;;;;8.57;3.22;;;;;;;14.21;74.74;101286.47;5114399;28;20127;-55
2021/09/29 04:07:42;;;;;;;11.30;3.30;;;;;;;14.29;75.00;101294.13;5114492;28;20046;-50
2021/09/29 04:10:10;;;;;;;7.25;3.30;;;;;;;14.26;74.61;101289.19;5113704;28;20089;-55
2021/09/29 04:12:58;;;;;;;9.50;3.30;;;;;;;14.20;74.21;101284.84;5114757;28;20039;-53
2021/09/29 04:15:26;;;;;;;13.73;4.00;;;;;;;14.19;74.31;101289.50;5115137;28;20101;-51
2021/09/29 04:17:54;;;;;;;9.95;3.20;;;;;;;14.20;74.36;101284.84;5113230;28;20040;-55
2021/09/29 04:20:21;;;;;;;6.18;3.15;;;;;;;14.21;74.27;101279.06;5104355;28;20040;-51
2021/09/29 04:22:49;;;;;;;10.23;3.70;;;;;;;14.21;74.13;101279.06;5111968;28;20414;-54
2021/09/29 04:25:16;;;;;;;8.35;3.47;;;;;;;14.17;74.12;101275.28;5115012;28;20042;-53
2021/09/29 04:27:44;;;;;;;8.63;3.80;;;;;;;14.15;74.44;101271.19;5110918;28;20051;-53
2021/09/29 04:30:15;;;;;;;8.85;3.25;;;;;;;14.15;74.68;101279.41;5112410;28;20048;-54
2021/09/29 04:32:44;;;;;;;11.73;4.00;;;;;;;14.15;74.46;101279.41;5114261;28;20492;-53
2021/09/29 04:35:12;;;;;;;6.20;3.30;;;;;;;14.20;75.09;101280.19;5113103;28;20448;-51
2021/09/29 04:37:40;;;;;;;7.40;2.60;;;;;;;14.25;75.92;101284.81;5113186;28;20036;-53
2021/09/29 04:40:08;;;;;;;9.30;3.65;;;;;;;14.32;75.52;101273.56;5112241;28;20035;-55
2021/09/29 04:42:36;;;;;;;7.90;3.22;;;;;;;14.27;75.62;101282.63;5113746;28;20035;-53
2021/09/29 04:45:04;;;;;;;7.18;3.08;;;;;;;14.26;76.56;101278.22;5114535;28;20055;-51
2021/09/29 04:47:34;;;;;;;6.68;3.28;;;;;;;14.26;76.40;101278.22;5114312;28;20088;-53
2021/09/29 04:50:02;;;;;;;10.15;3.80;;;;;;;14.19;76.53;101285.94;5110819;28;20089;-51
2021/09/29 04:52:29;;;;;;;7.53;3.35;;;;;;;14.18;76.91;101276.91;5114308;28;20432;-52
2021/09/29 04:54:57;;;;;;;6.72;3.00;;;;;;;14.15;77.06;101282.13;5114386;28;20044;-54
2021/09/29 04:57:25;;;;;;;7.80;3.55;;;;;;;14.11;77.36;101272.81;5112595;28;20043;-55
2021/09/29 04:59:52;;;;;;;5.78;3.15;;;;;;;14.04;77.86;101265.72;5114035;28;20412;-49
2021/09/29 05:02:20;;;;;;;10.82;3.85;;;;;;;14.00;78.19;101270.13;5098933;28;20456;-53
2021/09/29 05:04:47;;;;;;;5.22;3.00;;;;;;;13.97;78.08;101265.19;5113927;28;20039;-53
2021/09/29 05:07:17;;;;;;;11.63;3.80;;;;;;;13.96;78.55;101262.75;5114060;28;20044;-55
2021/09/29 05:09:46;;;;;;;6.90;3.50;;;;;;;13.94;78.64;101265.75;5111930;28;20051;-53
2021/09/29 05:12:31;;;;;;;8.35;3.50;;;;;;;13.90;79.05;101264.66;5112397;28;20043;-49
2021/09/29 05:14:59;;;;;;;9.40;3.60;;;;;;;13.90;78.81;101261.13;5101831;28;20047;-50
2021/09/29 05:17:28;;;;;;;11.20;3.67;;;;;;;13.88;79.17;101249.63;5111570;28;20768;-51
2021/09/29 05:19:56;;;;;;;7.65;3.17;;;;;;;13.86;79.46;101247.19;5113856;28;20040;-49
2021/09/29 05:22:23;;;;;;;9.73;3.60;;;;;;;13.86;79.35;101252.66;5107420;28;20036;-49
2021/09/29 05:24:51;;;;;;;8.13;3.53;;;;;;;13.85;79.53;101251.00;5112806;28;20039;-48
2021/09/29 05:27:19;;;;;;;11.05;3.28;;;;;;;13.89;79.71;101249.34;5113844;28;20498;-48
2021/09/29 05:29:48;;;;;;;11.90;3.58;;;;;;;13.88;79.86;101258.69;5109089;28;20035;-48
2021/09/29 05:32:15;;;;;;;8.35;3.28;;;;;;;13.85;79.82;101253.75;5112021;28;20440;-49
2021/09/29 05:34:43;;;;;;;10.90;3.35;;;;;;;13.78;80.23;101247.72;5113000;28;20156;-50
2021/09/29 05:37:11;;;;;;;9.77;3.63;;;;;;;13.67;81.03;101248.88;5113633;28;20127;-50
2021/09/29 05:39:38;;;;;;;9.85;3.65;;;;;;;13.64;81.53;101251.06;5111673;28;20494;-47
2021/09/29 05:42:06;;;;;;;5.18;2.72;;;;;;;13.66;81.64;101247.22;5111747;28;20032;-48
2021/09/29 05:44:36;;;;;;;7.95;3.30;;;;;;;13.62;81.99;101242.31;5113289;28;20040;-48
2021/09/29 05:47:04;;;;;;;9.63;3.47;;;;;;;13.65;82.17;101251.88;5111363;28;20047;-48
2021/09/29 05:49:32;;;;;;;9.02;3.25;;;;;;;13.69;82.28;101241.22;5101871;28;20489;-48
2021/09/29 05:52:00;;;;;;;11.98;3.20;;;;;;;13.76;81.86;101241.75;5100428;28;20062;-47
2021/09/29 05:54:29;;;;;;;9.73;3.20;;;;;;;13.77;81.88;101248.84;5107008;28;20040;-49
2021/09/29 05:56:56;;;;;;;9.32;3.20;;;;;;;13.74;82.09;101243.94;5101156;28;20039;-49
2021/09/29 05:59:24;;;;;;;8.25;2.53;;;;;;;13.76;81.99;101247.22;5098643;28;20100;-48
2021/09/29 06:01:52;;;;;;;5.90;2.67;;;;;;;13.78;82.30;101247.72;5100457;28;20426;-47
2021/09/29 06:04:20;;;;;;;8.63;3.20;;;;;;;13.79;82.06;101241.19;5104394;28;20070;-49
2021/09/29 06:06:47;;;;;;;8.02;2.97;;;;;;;13.82;82.03;101251.56;5110152;28;20046;-49
2021/09/29 06:09:15;;;;;;;7.18;2.80;;;;;;;13.81;81.95;101249.94;5109571;28;20052;-50
2021/09/29 06:11:42;;;;;;;6.90;2.80;;;;;;;13.81;82.23;101244.47;5111148;28;20395;-47
2021/09/29 06:14:10;;;;;;;8.18;3.15;;;;;;;13.81;82.44;101244.47;5105324;28;20403;-51
2021/09/29 06:16:43;;;;;;;7.07;3.05;;;;;;;13.82;81.99;101252.38;5098750;28;20047;-46
2021/09/29 06:19:14;;;;;;;8.88;3.25;;;;;;;13.78;82.61;101239.53;5106270;28;20123;-46
2021/09/29 06:21:42;;;;;;;5.63;2.60;;;;;;;13.83;82.70;101234.88;4395746;28;10000590;-48
2021/09/29 06:24:10;;;;;;;6.75;2.90;;;;;;;13.81;82.60;101238.97;5104148;28;20134;-48
2021/09/29 06:26:37;;;;;;;7.10;3.17;;;;;;;13.79;83.06;101241.19;5105271;28;20046;-48
2021/09/29 06:29:05;;;;;;;10.05;3.10;;;;;;;13.73;83.34;101236.81;5105437;28;20035;-51
2021/09/29 06:31:33;;;;;;;5.15;2.50;;;;;;;13.70;83.67;101238.19;5105608;28;20059;-48
2021/09/29 06:34:00;;;;;;;8.23;2.80;;;;;;;14.07;84.04;101231.47;5102244;28;20048;-48
2021/09/29 06:36:28;;;;;;;6.65;2.55;;;;;;;14.21;83.21;101226.19;5104261;28;20043;-50
2021/09/29 06:38:55;;;;;;;5.65;2.28;;;;;;;14.13;83.16;101233.09;5107350;28;20035;-48
2021/09/29 06:41:23;;;;;;;6.10;2.65;;;;;;;14.12;83.38;101217.75;5103811;28;20040;-48
2021/09/29 06:43:51;;;;;;;7.10;2.45;;;;;;;14.07;83.65;101220.53;5101166;28;20045;-46
2021/09/29 06:46:18;;;;;;;6.45;2.70;;;;;;;14.13;83.67;101230.34;5106826;28;20043;-49
2021/09/29 06:48:46;;;;;;;6.57;3.08;;;;;;;14.10;83.73;101224.63;5110271;28;20108;-48
2021/09/29 06:51:31;;;;;;;5.80;2.72;;;;;;;14.06;83.85;101224.34;5104256;28;20088;-49
2021/09/29 06:53:59;;;;;;;6.63;2.55;;;;;;;14.09;83.80;101222.97;5095579;28;20066;-45
2021/09/29 06:56:26;;;;;;;7.80;2.60;;;;;;;14.12;84.04;101230.59;5090766;28;20064;-50
2021/09/29 06:58:54;;;;;;;7.80;2.95;;;;;;;14.16;83.80;101229.75;5099875;28;20036;-52
2021/09/29 07:01:21;;;;;;;8.32;2.60;;;;;;;14.08;83.86;101233.09;5099055;28;20070;-51
2021/09/29 07:03:50;;;;;;;8.43;3.20;;;;;;;14.04;83.78;101230.09;5097657;28;20056;-52
2021/09/29 07:06:18;;;;;;;8.50;2.92;;;;;;;14.13;83.84;101230.34;5098212;28;20509;-50
2021/09/29 07:08:49;;;;;;;6.00;2.63;;;;;;;14.06;84.33;101224.34;5097580;28;20063;-49
2021/09/29 07:11:17;;;;;;;6.88;2.78;;;;;;;14.16;84.54;101228.94;5099630;28;20059;-50
2021/09/29 07:13:47;;;;;;;8.77;2.90;;;;;;;14.12;84.64;101216.91;5093507;28;20040;-47
2021/09/29 07:16:17;;;;;;;9.88;2.90;;;;;;;14.13;84.78;101221.31;5096982;28;20047;-47
2021/09/29 07:18:45;;;;;;;4.15;2.15;;;;;;;14.07;84.81;101223.25;5095288;28;20043;-47
2021/09/29 07:21:13;;;;;;;5.60;2.47;;;;;;;14.13;84.98;101219.38;5097371;28;20044;-47
2021/09/29 07:23:41;;;;;;;5.95;2.55;;;;;;;14.10;85.00;101224.63;5098959;28;20044;-49
2021/09/29 07:26:08;;;;;;;6.25;2.65;;;;;;;14.04;85.27;101215.59;5108239;28;20062;-48
2021/09/29 07:28:36;;;;;;;5.53;2.58;;;;;;;14.05;85.21;101223.53;5100993;28;20489;-48
2021/09/29 07:31:03;;;;;;;7.15;2.60;;;;;;;14.14;85.09;101214.72;5107232;28;20048;-48
2021/09/29 07:33:33;;;;;;;6.93;2.17;;;;;;;14.28;84.63;101221.22;5108764;28;20040;-47
2021/09/29 07:36:01;;;;;;;6.47;2.70;;;;;;;14.27;84.61;101225.06;5107094;28;20043;-49
2021/09/29 07:38:29;;;;;;;5.15;2.58;;;;;;;14.30;84.62;101219.00;5100109;28;20047;-47
2021/09/29 07:40:57;;;;;;;3.45;1.75;;;;;;;14.33;84.87;101218.44;5106341;28;20063;-48
2021/09/29 07:43:24;;;;;;;5.22;2.33;;;;;;;14.40;84.33;101218.13;5112317;28;20114;-49
2021/09/29 07:45:52;;;;;;;7.13;2.50;;;;;;;14.43;83.82;101225.78;5108970;28;20098;-49
2021/09/29 07:48:20;;;;;;;5.25;2.42;;;;;;;14.39;84.26;101227.47;5099569;28;20039;-48
2021/09/29 07:50:47;;;;;;;9.65;2.97;;;;;;;14.52;83.82;101215.03;5097588;28;20046;-46
2021/09/29 07:53:17;;;;;;;13.35;4.28;;;;;;;14.40;83.98;101212.63;5104331;28;20048;-48
2021/09/29 07:55:45;;;;;;;7.78;3.05;;;;;;;14.41;84.16;101208.81;5113579;28;20039;-48
2021/09/29 07:58:12;;;;;;;10.18;3.67;;;;;;;14.33;84.17;101203.91;5104009;28;20036;-49
2021/09/29 08:00:40;;;;;;;10.07;3.65;;;;;;;14.36;84.16;101223.38;5107860;28;20426;-48
2021/09/29 08:03:08;;;;;;;22.67;6.28;;;;;;;14.49;83.65;101232.88;5109805;28;20098;-51
2021/09/29 08:05:36;;;;;;;13.30;4.38;;;;;;;14.52;83.77;101250.69;5112500;28;20039;-50
2021/09/29 08:08:04;;;;;;;27.60;7.10;;;;;;;14.56;83.26;101258.09;5101361;28;20057;-50
2021/09/29 08:10:31;;;;;;;13.25;3.58;;;;;;;14.58;83.04;101268.78;5104283;28;20146;-48
2021/09/29 08:12:59;;;;;;;17.98;4.85;;;;;;;14.72;82.83;101268.94;5113798;28;20051;-51
2021/09/29 08:15:27;;;;;;;21.80;6.18;;;;;;;14.64;83.44;101267.63;5113707;28;20513;-48
2021/09/29 08:18:00;;;;;;;23.78;5.66;;;;;;;14.60;82.56;101263.81;4949757;28;10001293;-48
2021/09/29 08:20:30;;;;;;;21.23;5.25;;;;;;;14.39;83.25;101265.84;5098965;28;20252;-47
2021/09/29 08:23:04;;;;;;;6.90;3.08;;;;;;;14.25;84.21;101284.81;5102408;28;20067;-48
2021/09/29 08:26:09;;;;;;;10.20;3.92;;;;;;;14.24;83.58;101294.16;5102410;28;20040;-52
2021/09/29 08:36:49;;;;;;;10.65;3.35;;;;;;;14.33;82.46;101294.38;5098528;28;20514;-50
2021/09/29 08:39:15;;;;;;;6.90;2.40;;;;;;;14.39;81.70;101283.09;5096812;28;20051;-49
2021/09/29 08:41:51;;;;;;;14.45;4.72;;;;;;;14.30;82.82;101286.72;5102905;28;20039;-49
2021/09/29 08:44:25;;;;;;;12.50;3.92;;;;;;;14.48;82.27;101299.78;5105664;28;20058;-52
2021/09/29 08:47:11;;;;;;;6.40;2.90;;;;;;;14.28;81.38;101292.47;5108528;28;20039;-52
2021/09/29 09:16:58;;;;;;;4.53;2.65;;;;;;;13.99;82.26;101317.78;5095201;28;20037;-48
2021/09/29 09:19:30;;;;;;;9.93;3.28;;;;;;;13.97;83.08;101317.25;5097425;28;20039;-45
2021/09/29 09:22:02;;;;;;;10.93;3.47;;;;;;;14.09;82.52;101325.16;5112664;28;20039;-47
2021/09/29 09:24:33;;;;;;;7.15;2.75;;;;;;;14.36;80.79;101335.75;5109711;28;20449;-48
2021/09/29 09:27:09;;;;;;;13.07;2.72;;;;;;;14.15;80.89;101326.78;5102888;28;20841;-48
2021/09/29 09:29:44;;;;;;;6.70;2.70;;;;;;;13.98;81.04;101335.34;5111499;28;20410;-49
2021/09/29 09:32:13;;;;;;;8.38;3.03;;;;;;;14.20;82.18;101334.19;5112428;28;20044;-49
2021/09/29 09:34:41;;;;;;;8.07;3.40;;;;;;;14.23;83.09;101350.88;5108407;28;20486;-50
2021/09/29 09:37:11;;;;;;;4.53;1.92;;;;;;;14.04;81.03;101344.38;5112164;28;20048;-45
2021/09/29 09:39:39;;;;;;;11.00;3.15;;;;;;;13.96;82.10;101347.69;5111355;28;20395;-52
2021/09/29 09:42:08;;;;;;;5.80;2.30;;;;;;;13.81;81.82;101354.03;5112304;27;20042;-44
2021/09/29 09:44:38;;;;;;;6.00;2.42;;;;;;;13.77;82.48;101347.44;5109932;28;20202;-49
2021/09/29 09:47:08;;;;;;;8.65;3.13;;;;;;;13.84;82.81;101354.28;5108400;28;20043;-47
2021/09/29 09:49:51;;;;;;;7.65;2.10;;;;;;;13.72;82.12;101353.75;5110194;28;20052;-47
2021/09/29 09:52:30;;;;;;;6.32;2.95;;;;;;;13.87;83.45;101358.38;5088196;28;20041;-49
2021/09/29 09:55:18;;;;;;;6.57;2.45;;;;;;;13.78;82.99;101358.13;5107189;28;20390;-49
2021/09/29 09:57:52;;;;;;;6.22;2.65;;;;;;;13.94;82.47;101366.31;5098536;28;20040;-49
2021/09/29 10:00:27;;;;;;;4.50;2.42;;;;;;;13.80;82.47;101355.09;5108183;28;20047;-47
2021/09/29 10:02:55;;;;;;;5.00;2.60;;;;;;;13.74;82.38;101367.19;5099438;28;20562;-46
2021/09/29 10:05:26;;;;;;;4.95;2.30;;;;;;;13.79;82.81;101370.72;5106602;28;20457;-48
2021/09/29 10:07:54;;;;;;;14.80;5.70;;;;;;;13.90;82.76;101379.72;5097819;28;20051;-48
2021/09/29 10:27:21;;;;;;;16.92;6.82;;;;;;;14.06;84.17;101383.28;5106517;28;20054;-49
2021/09/29 10:29:57;;;;;;;14.65;6.32;;;;;;;14.00;83.72;101390.69;5106144;28;20040;-48
2021/09/29 10:32:32;;;;;;;4.68;2.90;;;;;;;13.87;83.26;101393.97;5109951;28;20563;-48
2021/09/29 10:35:11;;;;;;;7.88;3.83;;;;;;;13.80;83.72;101382.50;5108377;28;20048;-50
2021/09/29 10:43:28;;;;;;;4.60;2.60;;;;;;;13.64;82.71;101398.94;5110090;28;20055;-48
2021/09/29 11:28:30;;;;;;;10.55;3.78;;;;;;;13.75;82.52;101426.31;5094845;28;20071;-48
2021/09/29 11:31:11;;;;;;;7.35;3.20;;;;;;;13.74;81.62;101435.66;5104197;28;20405;-48
2021/09/29 11:33:50;;;;;;;13.57;4.10;;;;;;;13.87;82.87;101453.44;5092020;28;20036;-48
2021/09/29 12:10:11;;;;;;;6.88;1.95;;;;;;;13.53;76.20;101463.00;5067241;28;20317;-55
2021/09/29 12:12:44;;;;;;;8.77;2.72;;;;;;;13.63;77.44;101467.66;5049080;28;20537;-55
2021/09/29 12:15:11;;;;;;;6.40;2.45;;;;;;;13.71;76.85;101469.03;5062352;28;20056;-53
2021/09/29 12:17:40;;;;;;;8.18;2.83;;;;;;;13.79;79.53;101469.31;5062525;28;20389;-53
2021/09/29 12:20:22;;;;;;;5.05;2.10;;;;;;;13.63;74.25;101471.22;5066055;28;20048;-56
2021/09/29 12:22:54;;;;;;;6.10;1.80;;;;;;;13.68;74.56;101486.03;5109095;28;20047;-55
2021/09/29 12:33:59;;;;;;;4.93;2.08;;;;;;;13.49;75.23;101508.44;5101573;28;20140;-56
2021/09/29 12:36:36;;;;;;;3.43;1.80;;;;;;;13.51;76.20;101503.50;5111394;28;20398;-55
2021/09/29 12:39:16;;;;;;;4.15;1.63;;;;;;;13.57;75.46;101505.19;5104117;27;20698;-56
2021/09/29 12:41:54;;;;;;;7.57;1.88;;;;;;;13.66;76.12;101512.84;5097899;28;20089;-53
2021/09/29 12:44:22;;;;;;;4.75;1.75;;;;;;;13.64;76.05;101519.44;5114422;28;20043;-53
2021/09/29 12:47:09;;;;;;;2.25;1.67;;;;;;;13.78;78.85;101525.22;5106667;28;20493;-56
2021/09/29 12:49:38;;;;;;;5.65;2.30;;;;;;;13.81;77.45;101541.09;5099840;28;20118;-53
2021/09/29 12:52:12;;;;;;;6.90;2.08;;;;;;;13.66;78.22;101523.81;5103164;28;20097;-53
2021/09/29 12:54:48;;;;;;;6.15;1.92;;;;;;;13.66;78.92;101527.34;5104326;27;20044;-53
2021/09/29 12:57:17;;;;;;;;;;;;;;;13.79;82.24;101526.03;5108870;28;20440;-53
2021/09/29 12:59:44;;;;;;;5.40;2.28;;;;;;;13.90;79.84;101516.69;5102198;28;19969;-53
2021/09/29 13:02:12;;;;;;;8.82;2.63;;;;;;;13.96;78.34;101532.06;5106307;28;20458;-54
2021/09/29 13:04:40;;;;;;;11.20;2.33;;;;;;;13.88;78.29;101529.88;5108893;28;20397;-53
2021/09/29 13:07:08;;;;;;;6.30;2.35;;;;;;;13.91;78.43;101528.50;5097016;28;20394;-54
2021/09/29 13:09:36;;;;;;;8.00;2.60;;;;;;;13.97;78.67;101539.16;5101564;28;20409;-53
2021/09/29 13:12:04;;;;;;;7.45;2.38;;;;;;;13.92;78.68;101538.34;5098980;28;20491;-53
2021/09/29 13:14:32;;;;;;;5.45;2.28;;;;;;;13.82;77.81;101547.38;5108028;28;20035;-53
2021/09/29 13:17:00;;;;;;;7.65;2.35;;;;;;;13.94;78.86;101550.69;5101949;28;20462;-53
2021/09/29 13:19:33;;;;;;;6.95;2.35;;;;;;;13.88;77.64;101551.78;5107966;28;20501;-53
2021/09/29 13:22:04;;;;;;;6.55;2.38;;;;;;;13.97;78.48;101554.78;5097557;27;20439;-53
2021/09/29 13:38:29;;;;;;;4.65;1.90;;;;;;;14.40;80.39;101575.34;5100111;28;20038;-53
2021/09/29 13:40:56;;;;;;;8.65;2.50;;;;;;;14.63;78.80;101581.41;5101684;28;20468;-54
2021/09/29 13:43:24;;;;;;;5.40;2.03;;;;;;;14.43;77.85;101574.81;5109605;28;20443;-53
2021/09/29 13:45:53;;;;;;;8.07;2.40;;;;;;;14.56;78.02;101597.31;5112578;27;20043;-50
2021/09/29 13:48:20;;;;;;;4.82;1.92;;;;;;;14.53;76.50;101606.91;5096668;28;20035;-53
2021/09/29 13:50:48;;;;;;;7.97;2.10;;;;;;;14.41;75.34;101607.16;5109428;28;20458;-50
2021/09/29 13:53:16;;;;;;;7.97;2.38;;;;;;;14.35;74.77;101616.47;5110574;28;20436;-51
2021/09/29 13:55:46;;;;;;;6.97;2.50;;;;;;;14.21;74.67;101612.63;5104927;27;20040;-53
2021/09/29 13:58:45;;;;;;;6.43;1.90;;;;;;;14.21;75.39;101615.38;5104150;28;20047;-52
2021/09/29 14:15:05;;;;;;;6.82;2.45;;;;;;;14.10;74.03;101631.00;5106451;28;20050;-53
2021/09/29 14:28:54;;;;;;;4.10;1.85;;;;;;;14.08;68.37;101646.88;5096644;28;19931;-49
2021/09/29 14:31:35;;;;;;;7.25;2.10;;;;;;;13.99;68.83;101651.25;5111636;28;20035;-53
2021/09/29 14:34:04;;;;;;;5.93;1.92;;;;;;;13.95;69.11;101659.19;5100431;28;20092;-52
2021/09/29 14:36:54;;;;;;;4.65;1.65;;;;;;;13.94;71.50;101660.28;4390701;28;10001437;-52